Search for airport 
image banner adimage banner adimage banner ad
image banner ad

IA70 - Friesenborg&Larson

Located in Buffalo Center, United States

ICAO - IA70, IATA -

Data provided by Airmate  

General information

Coordinates: N43°25'33" W93°50'9"
Elevation is 1220 feet MSL.
Magnetic variation is 04° East
View others Airports in Iowa

Operational data

Special qualification required
Current time UTC:
Current local time:
Weather at : KFXY - Forest City Muni ( 27 km )
METAR: KFXY 150855Z AUTO 00000KT 10SM CLR 12/12 A3012 RMK AO2
View NOTAMs / SUP AIP / TFR affecting this airport [VIEW]
Communications frequencies: [VIEW]

Runways:

RWY identifierQFULength (ft)Width (ft)SurfaceLDA (ft)
172900100GRASS
352900100GRASS

Airport contact information

Address: Buffalo Center United States

Satellite view of IA70